createdAt,value
2022-10-16T00:01:13.472Z,5.75
2022-10-16T00:03:41.471Z,4.20
2022-10-16T00:06:11.484Z,2.58
2022-10-16T00:08:38.880Z,4.43
2022-10-16T00:14:15.713Z,1.90
2022-10-16T00:16:42.694Z,2.65
2022-10-16T00:19:10.464Z,2.42
2022-10-16T00:21:37.011Z,3.47
2022-10-16T00:24:09.514Z,3.80
2022-10-16T00:26:37.283Z,2.72
2022-10-16T00:29:05.070Z,3.03
2022-10-16T00:31:31.817Z,3.03
2022-10-16T00:33:58.395Z,2.97
2022-10-16T00:36:26.180Z,4.40
2022-10-16T00:38:55.622Z,2.22
2022-10-16T00:41:24.357Z,2.22
2022-10-16T00:43:54.942Z,2.47
2022-10-16T00:46:24.327Z,2.55
2022-10-16T00:49:04.684Z,3.10
2022-10-16T00:51:39.195Z,2.05
2022-10-16T00:54:09.535Z,2.47
2022-10-16T00:56:36.171Z,1.75
2022-10-16T00:59:04.989Z,2.35
2022-10-16T01:01:31.726Z,1.42
2022-10-16T01:03:58.323Z,3.35
2022-10-16T01:06:53.576Z,2.08
2022-10-16T01:09:29.198Z,3.20
2022-10-16T01:12:02.782Z,2.97
2022-10-16T01:14:42.041Z,2.33
2022-10-16T01:17:15.556Z,4.32
2022-10-16T01:20:09.664Z,1.85
2022-10-16T01:23:03.698Z,1.98
2022-10-16T01:26:02.088Z,3.22
2022-10-16T01:28:42.729Z,1.73
2022-10-16T01:31:10.177Z,2.45
2022-10-16T01:33:41.451Z,1.38
2022-10-16T01:36:13.079Z,2.55
2022-10-16T01:38:41.052Z,1.58
2022-10-16T01:41:31.510Z,3.65
2022-10-16T01:44:03.668Z,1.92
2022-10-16T01:46:31.803Z,2.10
2022-10-16T01:48:59.048Z,1.92
2022-10-16T01:51:26.341Z,3.40
2022-10-16T01:53:55.272Z,2.65
2022-10-16T01:56:23.663Z,1.98
2022-10-16T01:59:03.871Z,2.63
2022-10-16T02:01:32.783Z,1.55
2022-10-16T02:04:04.912Z,2.55
2022-10-16T02:06:31.684Z,4.20
2022-10-16T02:08:58.240Z,2.70
2022-10-16T02:11:25.353Z,3.15
2022-10-16T02:14:02.903Z,4.32
2022-10-16T02:16:37.210Z,1.98
2022-10-16T02:19:05.039Z,2.17
2022-10-16T02:21:48.300Z,5.97
2022-10-16T02:24:26.447Z,2.10
2022-10-16T02:27:06.501Z,1.80
2022-10-16T02:29:34.255Z,3.95
2022-10-16T02:32:03.974Z,2.25
2022-10-16T02:34:31.772Z,1.80
2022-10-16T02:36:58.975Z,1.75
2022-10-16T02:39:26.063Z,1.95
2022-10-16T02:41:52.599Z,2.33
2022-10-16T02:44:19.140Z,2.17
2022-10-16T02:46:45.673Z,1.40
2022-10-16T02:49:12.311Z,1.80
2022-10-16T02:51:38.839Z,2.67
2022-10-16T02:54:05.662Z,3.45
2022-10-16T02:56:32.370Z,1.48
2022-10-16T02:58:58.951Z,1.92
2022-10-16T03:01:25.722Z,2.17
2022-10-16T03:03:52.354Z,2.22
2022-10-16T03:06:19.040Z,2.85
2022-10-16T03:08:45.586Z,2.03
2022-10-16T03:11:12.125Z,2.75
2022-10-16T03:13:38.689Z,2.00
2022-10-16T03:16:05.259Z,1.20
2022-10-16T03:18:31.896Z,2.75
2022-10-16T03:20:58.458Z,2.17
2022-10-16T03:23:25.074Z,5.00
2022-10-16T03:25:51.679Z,2.15
2022-10-16T03:28:18.397Z,2.20
2022-10-16T03:30:45.115Z,1.98
2022-10-16T03:33:11.663Z,2.17
2022-10-16T03:35:38.245Z,1.77
2022-10-16T03:38:04.817Z,2.05
2022-10-16T03:40:33.225Z,1.98
2022-10-16T03:43:00.220Z,3.60
2022-10-16T03:45:27.302Z,1.70
2022-10-16T03:47:53.996Z,2.00
2022-10-16T03:50:20.547Z,2.47
2022-10-16T03:52:47.159Z,2.38
2022-10-16T03:55:13.696Z,2.70
2022-10-16T03:57:40.233Z,1.85
2022-10-16T04:00:07.259Z,1.70
2022-10-16T04:02:38.566Z,4.75
2022-10-16T04:05:05.337Z,3.03
2022-10-16T04:07:31.906Z,2.50
2022-10-16T04:09:59.898Z,3.17
2022-10-16T04:12:27.386Z,3.63
2022-10-16T04:14:53.920Z,2.35
2022-10-16T04:17:20.642Z,1.88
2022-10-16T04:19:47.191Z,2.33
2022-10-16T04:22:14.157Z,2.38
2022-10-16T04:24:41.122Z,2.58
2022-10-16T04:27:07.654Z,2.38
2022-10-16T04:29:34.224Z,1.83
2022-10-16T04:32:00.777Z,1.23
2022-10-16T04:34:27.323Z,1.38
2022-10-16T04:36:53.860Z,2.42
2022-10-16T04:39:20.453Z,2.05
2022-10-16T04:41:46.998Z,2.58
2022-10-16T04:44:13.539Z,1.52
2022-10-16T04:46:40.074Z,4.10
2022-10-16T04:49:06.731Z,2.60
2022-10-16T04:51:33.279Z,4.70
2022-10-16T04:53:59.888Z,4.80
2022-10-16T04:56:26.428Z,1.55
2022-10-16T04:58:52.978Z,3.22
2022-10-16T05:01:19.552Z,1.90
2022-10-16T05:03:46.156Z,1.88
2022-10-16T05:06:12.748Z,2.17
2022-10-16T05:08:39.309Z,1.92
2022-10-16T05:11:05.854Z,2.20
2022-10-16T05:13:32.390Z,3.00
2022-10-16T05:15:58.932Z,2.45
2022-10-16T05:18:25.549Z,1.38
2022-10-16T05:20:52.176Z,1.55
2022-10-16T05:23:18.718Z,4.40
2022-10-16T05:25:54.194Z,4.68
2022-10-16T05:28:20.739Z,2.42
2022-10-16T05:30:47.292Z,3.83
2022-10-16T05:33:14.482Z,1.85
2022-10-16T05:35:41.024Z,2.47
2022-10-16T05:38:07.576Z,2.85
2022-10-16T05:40:34.261Z,2.72
2022-10-16T05:43:00.805Z,2.63
2022-10-16T05:45:27.645Z,2.20
2022-10-16T05:47:54.263Z,2.25
2022-10-16T05:50:20.996Z,3.45
2022-10-16T05:52:47.615Z,2.00
2022-10-16T05:55:14.223Z,2.13
2022-10-16T05:57:40.788Z,1.42
2022-10-16T06:00:07.784Z,2.08
2022-10-16T06:02:39.218Z,1.95
2022-10-16T06:05:05.943Z,3.10
2022-10-16T06:07:35.552Z,3.22
2022-10-16T06:10:02.252Z,1.63
2022-10-16T06:12:28.799Z,5.13
2022-10-16T06:14:55.372Z,4.72
2022-10-16T06:17:21.920Z,3.60
2022-10-16T06:19:48.457Z,2.78
2022-10-16T06:22:14.991Z,2.38
2022-10-16T06:24:41.515Z,2.83
2022-10-16T06:27:08.056Z,2.60
2022-10-16T06:29:34.661Z,2.47
2022-10-16T06:32:01.220Z,4.53
2022-10-16T06:34:27.782Z,3.78
2022-10-16T06:36:54.307Z,4.93
2022-10-16T06:39:20.847Z,2.75
2022-10-16T06:41:47.462Z,4.55
2022-10-16T06:44:15.858Z,3.08
2022-10-16T06:46:42.451Z,2.08
2022-10-16T06:49:09.050Z,2.10
2022-10-16T06:51:40.486Z,2.15
2022-10-16T06:54:09.672Z,4.10
2022-10-16T06:56:36.659Z,1.92
2022-10-16T06:59:03.898Z,1.58
2022-10-16T07:01:30.823Z,2.58
2022-10-16T07:03:57.820Z,1.50
2022-10-16T07:06:25.949Z,4.00
2022-10-16T07:08:53.045Z,1.55
2022-10-16T07:11:21.866Z,6.80
2022-10-16T07:13:52.949Z,2.28
2022-10-16T07:16:26.663Z,4.18
2022-10-16T07:19:00.053Z,2.50
2022-10-16T07:21:32.512Z,5.93
2022-10-16T07:24:00.452Z,1.88
2022-10-16T07:26:27.811Z,3.40
2022-10-16T07:28:54.549Z,2.83
2022-10-16T07:31:22.048Z,3.97
2022-10-16T07:33:49.314Z,1.75
2022-10-16T07:36:17.419Z,5.13
2022-10-16T07:38:44.303Z,1.95
2022-10-16T07:41:13.806Z,2.00
2022-10-16T07:43:40.767Z,1.80
2022-10-16T07:46:07.487Z,1.75
2022-10-16T07:48:35.638Z,2.25
2022-10-16T07:51:04.412Z,2.55
2022-10-16T07:53:31.331Z,1.20
2022-10-16T07:56:01.987Z,2.05
2022-10-16T07:58:29.486Z,1.33
2022-10-16T08:00:57.567Z,5.20
2022-10-16T08:03:24.896Z,2.97
2022-10-16T08:05:51.566Z,1.27
2022-10-16T08:08:18.859Z,2.40
2022-10-16T08:10:45.844Z,3.63
2022-10-16T08:13:13.798Z,1.60
2022-10-16T08:15:40.422Z,2.70
2022-10-16T08:18:07.014Z,1.80
2022-10-16T08:20:34.144Z,1.98
2022-10-16T08:23:01.533Z,2.00
2022-10-16T08:25:28.506Z,2.90
2022-10-16T08:27:55.103Z,3.00
2022-10-16T08:30:22.973Z,1.70
2022-10-16T08:32:49.643Z,3.22
2022-10-16T08:35:16.851Z,1.75
2022-10-16T08:37:43.689Z,2.72
2022-10-16T08:40:37.349Z,3.15
2022-10-16T08:43:23.625Z,3.38
2022-10-16T08:46:19.145Z,3.45
2022-10-16T08:48:51.560Z,2.45
2022-10-16T08:51:27.211Z,1.23
2022-10-16T08:53:58.900Z,1.17
2022-10-16T08:56:26.558Z,1.92
2022-10-16T08:58:56.663Z,2.13
2022-10-16T09:01:43.212Z,3.13
2022-10-16T09:04:30.116Z,1.48
2022-10-16T09:07:06.196Z,3.47
2022-10-16T09:10:03.647Z,1.13
2022-10-16T09:12:38.412Z,3.42
2022-10-16T09:15:23.440Z,1.65
2022-10-16T09:17:56.915Z,0.93
2022-10-16T09:20:34.923Z,2.45
2022-10-16T09:23:14.570Z,0.82
2022-10-16T09:25:44.696Z,1.73
2022-10-16T09:28:11.475Z,1.88
2022-10-16T09:30:39.450Z,1.05
2022-10-16T09:33:07.043Z,3.92
2022-10-16T09:35:39.406Z,0.75
2022-10-16T09:38:06.641Z,3.90
2022-10-16T09:40:40.611Z,1.30
2022-10-16T09:43:22.074Z,0.40
2022-10-16T09:45:56.523Z,1.05
2022-10-16T09:48:23.510Z,0.68
2022-10-16T09:50:57.647Z,2.70
2022-10-16T09:53:24.663Z,2.42
2022-10-16T09:55:52.201Z,2.90
2022-10-16T09:58:18.951Z,1.63
2022-10-16T10:00:55.624Z,0.80
2022-10-16T10:03:36.371Z,1.30
2022-10-16T10:06:08.075Z,5.28
2022-10-16T10:08:34.620Z,1.90
2022-10-16T10:11:02.231Z,2.15
2022-10-16T10:13:28.966Z,2.45
2022-10-16T10:15:55.704Z,1.35
2022-10-16T10:18:24.976Z,0.90
2022-10-16T10:21:01.894Z,1.05
2022-10-16T10:23:29.623Z,3.13
2022-10-16T10:26:14.589Z,0.73
2022-10-16T10:29:06.948Z,0.88
2022-10-16T10:31:54.669Z,2.10
2022-10-16T10:34:47.709Z,1.90
2022-10-16T10:37:27.124Z,0.95
2022-10-16T10:40:05.260Z,1.58
2022-10-16T10:42:37.832Z,4.45
2022-10-16T10:45:26.558Z,2.10
2022-10-16T10:48:23.739Z,1.65
2022-10-16T10:50:57.966Z,1.92
2022-10-16T10:53:46.612Z,1.50
2022-10-16T10:56:39.307Z,0.80
2022-10-16T10:59:28.599Z,2.08
2022-10-16T11:02:19.289Z,1.23
2022-10-16T11:04:56.334Z,2.45
2022-10-16T11:07:28.117Z,2.15
2022-10-16T11:09:59.027Z,0.98
2022-10-16T11:12:30.163Z,2.83
2022-10-16T11:15:02.592Z,1.80
2022-10-16T11:17:41.148Z,2.13
2022-10-16T11:20:31.141Z,1.00
2022-10-16T11:23:01.463Z,1.55
2022-10-16T11:25:29.615Z,0.95
2022-10-16T11:28:02.552Z,1.15
2022-10-16T11:30:31.901Z,0.68
2022-10-16T11:33:07.092Z,2.33
2022-10-16T11:35:37.320Z,1.15
2022-10-16T11:38:04.826Z,1.45
2022-10-16T11:40:35.546Z,4.90
2022-10-16T11:43:15.838Z,0.70
2022-10-16T11:45:52.876Z,0.47
2022-10-16T11:48:25.860Z,2.38
2022-10-16T11:50:59.842Z,2.85
2022-10-16T11:53:44.319Z,0.47
2022-10-16T11:56:15.163Z,1.38
2022-10-16T11:59:08.252Z,0.90
2022-10-16T12:01:45.070Z,1.33
2022-10-16T12:04:34.081Z,2.72
2022-10-16T12:07:10.908Z,0.38
2022-10-16T12:09:41.518Z,1.00
2022-10-16T12:12:48.037Z,0.88
2022-10-16T12:15:35.203Z,2.13
2022-10-16T12:18:24.729Z,2.72
2022-10-16T12:21:06.513Z,0.98
2022-10-16T12:23:34.592Z,2.05
2022-10-16T12:26:03.412Z,0.80
2022-10-16T12:28:33.008Z,0.73
2022-10-16T12:31:09.479Z,1.52
2022-10-16T12:33:38.023Z,4.95
2022-10-16T12:36:26.356Z,1.40
2022-10-16T12:38:53.375Z,1.73
2022-10-16T12:41:31.291Z,0.73
2022-10-16T12:43:58.198Z,1.73
2022-10-16T12:46:31.001Z,1.85
2022-10-16T12:49:12.821Z,0.73
2022-10-16T12:51:39.630Z,0.65
2022-10-16T12:54:19.574Z,0.82
2022-10-16T12:57:13.988Z,0.57
2022-10-16T13:00:02.861Z,0.68
2022-10-16T13:02:54.768Z,0.85
2022-10-16T13:08:41.356Z,1.10
2022-10-16T13:11:17.828Z,2.00
2022-10-16T13:14:04.534Z,2.55
2022-10-16T13:16:46.287Z,1.88
2022-10-16T13:19:22.788Z,2.38
2022-10-16T13:22:27.944Z,2.47
2022-10-16T13:25:02.285Z,2.03
2022-10-16T13:27:55.407Z,0.47
2022-10-16T13:30:28.186Z,0.52
2022-10-16T13:33:05.696Z,0.68
2022-10-16T13:35:34.767Z,0.63
2022-10-16T13:38:14.759Z,2.65
2022-10-16T13:40:58.062Z,2.28
2022-10-16T13:43:34.096Z,2.30
2022-10-16T13:46:03.722Z,2.13
2022-10-16T13:48:32.069Z,2.22
2022-10-16T13:51:16.864Z,1.33
2022-10-16T13:53:44.558Z,2.70
2022-10-16T13:56:16.619Z,2.55
2022-10-16T13:58:44.175Z,4.10
2022-10-16T14:01:26.206Z,1.85
2022-10-16T14:04:11.584Z,0.60
2022-10-16T14:06:41.914Z,0.65
2022-10-16T14:09:27.328Z,0.70
2022-10-16T14:11:59.200Z,1.98
2022-10-16T14:14:26.300Z,1.45
2022-10-16T14:16:52.916Z,0.90
2022-10-16T14:19:25.122Z,5.15
2022-10-16T14:21:54.933Z,2.03
2022-10-16T14:24:31.551Z,1.58
2022-10-16T14:26:58.719Z,0.70
2022-10-16T14:29:26.959Z,0.73
2022-10-16T14:32:01.338Z,1.73
2022-10-16T14:34:36.053Z,0.75
2022-10-16T14:37:18.137Z,1.48
2022-10-16T14:39:50.362Z,2.10
2022-10-16T14:42:20.708Z,0.60
2022-10-16T14:44:48.449Z,1.15
2022-10-16T14:47:17.676Z,0.68
2022-10-16T14:49:44.256Z,0.65
2022-10-16T14:52:14.052Z,0.45
2022-10-16T14:54:41.333Z,1.83
2022-10-16T14:57:18.424Z,1.08
2022-10-16T14:59:46.054Z,1.15
2022-10-16T15:02:21.963Z,0.60
2022-10-16T15:04:48.855Z,1.20
2022-10-16T15:07:15.915Z,0.85
2022-10-16T15:09:46.573Z,1.10
2022-10-16T15:12:16.135Z,2.92
2022-10-16T15:14:43.587Z,0.98
2022-10-16T15:17:14.589Z,1.08
2022-10-16T15:19:42.998Z,1.73
2022-10-16T15:22:12.331Z,1.92
2022-10-16T15:24:39.144Z,2.25
2022-10-16T15:27:05.726Z,1.88
2022-10-16T15:29:32.328Z,2.45
2022-10-16T15:31:58.969Z,1.27
2022-10-16T15:34:25.578Z,3.00
2022-10-16T15:36:52.240Z,2.45
2022-10-16T15:39:20.550Z,2.30
2022-10-16T15:41:52.299Z,4.07
2022-10-16T15:44:19.222Z,6.30
2022-10-16T15:46:45.873Z,7.63
2022-10-16T15:49:13.195Z,5.93
2022-10-16T15:51:41.473Z,7.32
2022-10-16T15:54:10.159Z,5.47
2022-10-16T15:56:38.297Z,8.25
2022-10-16T15:59:05.786Z,7.13
2022-10-16T16:01:34.812Z,6.03
2022-10-16T16:04:04.674Z,4.70
2022-10-16T16:06:33.995Z,5.45
2022-10-16T16:11:32.918Z,5.53
2022-10-16T16:13:59.633Z,7.90
2022-10-16T16:16:26.401Z,7.05
2022-10-16T16:18:56.172Z,7.20
2022-10-16T16:21:23.169Z,7.05
2022-10-16T16:23:50.822Z,6.15
2022-10-16T16:26:27.132Z,6.95
2022-10-16T16:28:56.777Z,5.45
2022-10-16T16:31:28.223Z,9.35
2022-10-16T16:33:54.994Z,7.72
2022-10-16T16:36:21.530Z,6.15
2022-10-16T16:38:48.187Z,5.75
2022-10-16T16:41:20.072Z,8.00
2022-10-16T16:43:48.277Z,5.45
2022-10-16T16:46:15.902Z,8.18
2022-10-16T16:48:42.630Z,6.95
2022-10-16T16:51:16.430Z,6.22
2022-10-16T16:53:44.138Z,6.65
2022-10-16T16:56:11.071Z,7.93
2022-10-16T16:58:38.681Z,6.53
2022-10-16T17:01:21.750Z,6.70
2022-10-16T17:03:51.166Z,9.00
2022-10-16T17:06:20.746Z,5.25
2022-10-16T17:08:48.611Z,6.47
2022-10-16T17:11:26.341Z,5.53
2022-10-16T17:13:56.735Z,7.97
2022-10-16T17:16:29.423Z,8.52
2022-10-16T17:18:56.126Z,4.95
2022-10-16T17:21:23.290Z,5.22
2022-10-16T17:23:53.160Z,6.35
2022-10-16T17:26:19.861Z,6.30
2022-10-16T17:28:46.731Z,6.85
2022-10-16T17:31:18.968Z,3.83
2022-10-16T17:33:45.723Z,2.55
2022-10-16T17:36:14.722Z,5.47
2022-10-16T17:38:42.308Z,4.43
2022-10-16T17:41:18.279Z,3.63
2022-10-16T17:43:45.604Z,2.70
2022-10-16T17:46:13.454Z,3.78
2022-10-16T17:48:41.364Z,4.40
2022-10-16T17:51:09.132Z,3.30
2022-10-16T17:53:35.896Z,6.20
2022-10-16T17:56:04.446Z,8.93
2022-10-16T17:58:31.863Z,7.93
2022-10-16T18:00:58.435Z,10.50
2022-10-16T18:03:28.860Z,10.02
2022-10-16T18:05:56.086Z,11.43
2022-10-16T18:08:26.329Z,8.38
2022-10-16T18:10:55.567Z,8.35
2022-10-16T18:13:23.414Z,12.82
2022-10-16T18:16:00.792Z,9.63
2022-10-16T18:18:29.633Z,12.18
2022-10-16T18:21:00.537Z,9.05
2022-10-16T18:23:27.788Z,9.50
2022-10-16T18:25:54.865Z,10.77
2022-10-16T18:28:21.491Z,11.70
2022-10-16T18:30:56.277Z,10.63
2022-10-16T18:33:22.860Z,11.00
2022-10-16T18:35:50.166Z,9.68
2022-10-16T18:38:16.934Z,11.07
2022-10-16T18:40:43.728Z,13.40
2022-10-16T18:43:10.288Z,16.17
2022-10-16T18:45:37.002Z,11.13
2022-10-16T18:48:03.998Z,10.95
2022-10-16T18:50:30.976Z,10.18
2022-10-16T18:52:57.668Z,12.40
2022-10-16T18:55:28.943Z,12.18
2022-10-16T18:57:57.390Z,13.13
2022-10-16T19:00:24.158Z,10.60
2022-10-16T19:02:50.794Z,14.35
2022-10-16T19:05:17.368Z,13.05
2022-10-16T19:07:46.537Z,14.77
2022-10-16T19:10:13.196Z,13.90
2022-10-16T19:12:41.398Z,11.88
2022-10-16T19:15:08.538Z,13.85
2022-10-16T19:17:37.170Z,12.88
2022-10-16T19:20:05.460Z,11.77
2022-10-16T19:22:51.555Z,11.40
2022-10-16T19:25:19.815Z,12.43
2022-10-16T19:27:46.708Z,12.38
2022-10-16T19:32:59.982Z,15.93
2022-10-16T19:35:27.017Z,15.85
2022-10-16T19:37:53.699Z,15.30
2022-10-16T19:40:20.307Z,15.15
2022-10-16T19:42:47.718Z,15.13
2022-10-16T19:45:14.472Z,16.23
2022-10-16T19:47:41.126Z,16.13
2022-10-16T19:50:10.033Z,12.68
2022-10-16T19:52:37.472Z,12.43
2022-10-16T19:55:05.805Z,13.07
2022-10-16T20:00:08.578Z,15.90
2022-10-16T20:02:36.062Z,12.57
2022-10-16T20:05:02.898Z,12.52
2022-10-16T20:07:32.569Z,15.15
2022-10-16T20:13:16.055Z,14.27
2022-10-16T20:15:42.611Z,14.15
2022-10-16T20:18:09.527Z,17.10
2022-10-16T20:20:40.038Z,16.67
2022-10-16T20:23:07.295Z,14.48
2022-10-16T20:25:41.700Z,13.68
2022-10-16T20:28:09.816Z,14.27
2022-10-16T20:30:37.515Z,14.75
2022-10-16T20:33:05.030Z,12.35
2022-10-16T20:35:36.619Z,49.83
2022-10-16T20:38:03.353Z,46.72
2022-10-16T20:40:30.058Z,38.17
2022-10-16T20:42:56.665Z,31.95
2022-10-16T20:45:23.261Z,22.85
2022-10-16T20:47:49.954Z,16.83
2022-10-16T20:50:16.732Z,14.93
2022-10-16T20:52:43.395Z,15.35
2022-10-16T20:55:10.137Z,16.30
2022-10-16T20:57:36.783Z,17.23
2022-10-16T21:00:05.102Z,15.30
2022-10-16T21:02:31.893Z,19.50
2022-10-16T21:04:58.438Z,15.40
2022-10-16T21:07:25.250Z,13.82
2022-10-16T21:09:52.103Z,14.57
2022-10-16T21:12:18.657Z,15.43
2022-10-16T21:15:02.564Z,16.52
2022-10-16T21:17:31.973Z,13.77
2022-10-16T21:19:58.570Z,13.52
2022-10-16T21:22:29.297Z,11.50
2022-10-16T21:24:56.123Z,11.65
2022-10-16T21:30:52.115Z,10.93
2022-10-16T21:54:28.672Z,9.85
2022-10-16T22:00:09.005Z,10.77
2022-10-16T22:02:36.212Z,14.35
2022-10-16T22:05:02.908Z,15.00
2022-10-16T22:07:29.994Z,9.80
2022-10-16T22:09:56.867Z,10.70
2022-10-16T22:12:23.411Z,10.40
2022-10-16T22:14:50.015Z,9.18
2022-10-16T22:17:16.663Z,10.50
2022-10-16T22:19:45.641Z,9.38
2022-10-16T22:22:13.822Z,9.57
2022-10-16T22:24:40.374Z,9.90
2022-10-16T22:27:06.945Z,10.45
2022-10-16T22:29:33.504Z,12.77
2022-10-16T22:32:00.135Z,11.48
2022-10-16T22:34:28.139Z,10.38
2022-10-16T22:36:54.693Z,11.02
2022-10-16T22:39:21.256Z,11.45
2022-10-16T22:41:47.815Z,11.95
2022-10-16T22:44:14.359Z,11.15
2022-10-16T22:46:40.990Z,12.95
2022-10-16T22:49:07.548Z,11.48
2022-10-16T22:51:34.120Z,9.23
2022-10-16T22:54:00.654Z,12.05
2022-10-16T22:56:27.419Z,11.15
2022-10-16T22:58:54.007Z,11.35
2022-10-16T23:01:30.690Z,12.32
2022-10-16T23:03:57.377Z,9.75
2022-10-16T23:09:47.511Z,11.02
2022-10-16T23:12:14.179Z,9.05
2022-10-16T23:14:40.799Z,9.63
2022-10-16T23:17:07.434Z,11.30
2022-10-16T23:19:34.007Z,10.85
2022-10-16T23:22:00.591Z,12.30
2022-10-16T23:24:27.212Z,11.80
2022-10-16T23:26:53.793Z,9.05
2022-10-16T23:29:20.496Z,10.35
2022-10-16T23:31:47.070Z,10.13
2022-10-16T23:34:13.666Z,9.73
2022-10-16T23:36:42.273Z,10.45
2022-10-16T23:39:08.936Z,8.80
2022-10-16T23:41:35.528Z,8.55
2022-10-16T23:44:02.168Z,14.18
2022-10-16T23:46:28.752Z,12.15
2022-10-16T23:48:55.472Z,10.07
2022-10-16T23:51:22.024Z,10.52
2022-10-16T23:53:48.550Z,10.25
2022-10-16T23:56:15.123Z,11.82
2022-10-16T23:58:42.049Z,10.35
